sensor_id;sensor_type;location;lat;lon;timestamp;pressure;altitude;pressure_sealevel;temperature;humidity
75418;BME280;63997;52.112;5.420;2023-04-16T00:00:48;102334.94;;;8.27;90.81
75418;BME280;63997;52.112;5.420;2023-04-16T00:03:15;102328.56;;;8.28;91.03
75418;BME280;63997;52.112;5.420;2023-04-16T00:05:42;102330.16;;;8.29;90.72
75418;BME280;63997;52.112;5.420;2023-04-16T00:08:08;102333.59;;;8.30;90.87
75418;BME280;63997;52.112;5.420;2023-04-16T00:10:34;102330.94;;;8.30;91.11
75418;BME280;63997;52.112;5.420;2023-04-16T00:13:01;102333.59;;;8.30;90.98
75418;BME280;63997;52.112;5.420;2023-04-16T00:15:27;102335.19;;;8.31;91.14
75418;BME280;63997;52.112;5.420;2023-04-16T00:17:53;102341.53;;;8.30;91.31
75418;BME280;63997;52.112;5.420;2023-04-16T00:20:20;102324.84;;;8.29;91.32
75418;BME280;63997;52.112;5.420;2023-04-16T00:22:46;102336.25;;;8.30;91.38
75418;BME280;63997;52.112;5.420;2023-04-16T00:25:13;102327.78;;;8.28;91.22
75418;BME280;63997;52.112;5.420;2023-04-16T00:27:39;102333.06;;;8.28;91.37
75418;BME280;63997;52.112;5.420;2023-04-16T00:30:06;102336.25;;;8.30;91.51
75418;BME280;63997;52.112;5.420;2023-04-16T00:32:33;102336.25;;;8.30;91.47
75418;BME280;63997;52.112;5.420;2023-04-16T00:34:59;102337.31;;;8.34;91.68
75418;BME280;63997;52.112;5.420;2023-04-16T00:37:25;102336.78;;;8.32;91.66
75418;BME280;63997;52.112;5.420;2023-04-16T00:39:52;102340.50;;;8.31;91.50
75418;BME280;63997;52.112;5.420;2023-04-16T00:42:18;102328.56;;;8.28;91.51
75418;BME280;63997;52.112;5.420;2023-04-16T00:44:45;102334.66;;;8.29;91.64
75418;BME280;63997;52.112;5.420;2023-04-16T00:47:11;102334.66;;;8.29;91.92
75418;BME280;63997;52.112;5.420;2023-04-16T00:49:38;102342.88;;;8.27;92.21
75418;BME280;63997;52.112;5.420;2023-04-16T00:52:04;102338.88;;;8.25;91.69
75418;BME280;63997;52.112;5.420;2023-04-16T00:54:31;102334.13;;;8.27;91.99
75418;BME280;63997;52.112;5.420;2023-04-16T00:56:58;102334.41;;;8.25;91.93
75418;BME280;63997;52.112;5.420;2023-04-16T00:59:26;102332.78;;;8.24;92.27
75418;BME280;63997;52.112;5.420;2023-04-16T01:01:52;102332.28;;;8.22;91.92
75418;BME280;63997;52.112;5.420;2023-04-16T01:04:19;102329.91;;;8.20;91.91
75418;BME280;63997;52.112;5.420;2023-04-16T01:06:46;102331.47;;;8.21;91.98
75418;BME280;63997;52.112;5.420;2023-04-16T01:09:12;102329.91;;;8.20;91.92
75418;BME280;63997;52.112;5.420;2023-04-16T01:11:39;102337.84;;;8.20;92.15
75418;BME280;63997;52.112;5.420;2023-04-16T01:14:05;102330.97;;;8.19;92.37
75418;BME280;63997;52.112;5.420;2023-04-16T01:16:31;102336.25;;;8.19;92.39
75418;BME280;63997;52.112;5.420;2023-04-16T01:18:58;102334.41;;;8.20;92.49
75418;BME280;63997;52.112;5.420;2023-04-16T01:21:24;102320.38;;;8.19;92.66
75418;BME280;63997;52.112;5.420;2023-04-16T01:23:51;102329.09;;;8.20;92.48
75418;BME280;63997;52.112;5.420;2023-04-16T01:26:17;102333.63;;;8.19;92.65
75418;BME280;63997;52.112;5.420;2023-04-16T01:28:44;102338.91;;;8.19;92.50
75418;BME280;63997;52.112;5.420;2023-04-16T01:31:10;102336.25;;;8.19;92.60
75418;BME280;63997;52.112;5.420;2023-04-16T01:33:37;102344.19;;;8.25;92.72
75418;BME280;63997;52.112;5.420;2023-04-16T01:36:03;102338.88;;;8.25;92.73
75418;BME280;63997;52.112;5.420;2023-04-16T01:38:30;102339.44;;;8.21;92.66
75418;BME280;63997;52.112;5.420;2023-04-16T01:40:56;102335.19;;;8.20;92.53
75418;BME280;63997;52.112;5.420;2023-04-16T01:43:23;102343.66;;;8.22;92.62
75418;BME280;63997;52.112;5.420;2023-04-16T01:45:49;102345.25;;;8.23;92.50
75418;BME280;63997;52.112;5.420;2023-04-16T01:48:16;102343.94;;;8.21;92.52
75418;BME280;63997;52.112;5.420;2023-04-16T01:50:42;102347.91;;;8.23;92.62
75418;BME280;63997;52.112;5.420;2023-04-16T01:53:08;102346.31;;;8.22;92.58
75418;BME280;63997;52.112;5.420;2023-04-16T01:55:35;102347.38;;;8.21;92.39
75418;BME280;63997;52.112;5.420;2023-04-16T01:58:01;102348.19;;;8.22;92.53
75418;BME280;63997;52.112;5.420;2023-04-16T02:00:28;102348.44;;;8.20;92.48
75418;BME280;63997;52.112;5.420;2023-04-16T02:02:54;102350.81;;;8.22;92.38
75418;BME280;63997;52.112;5.420;2023-04-16T02:05:21;102353.22;;;8.23;92.61
75418;BME280;63997;52.112;5.420;2023-04-16T02:07:47;102353.22;;;8.23;92.71
75418;BME280;63997;52.112;5.420;2023-04-16T02:10:14;102348.69;;;8.24;92.57
75418;BME280;63997;52.112;5.420;2023-04-16T02:12:40;102340.50;;;8.26;92.62
75418;BME280;63997;52.112;5.420;2023-04-16T02:15:07;102349.25;;;8.26;92.56
75418;BME280;63997;52.112;5.420;2023-04-16T02:17:33;102354.28;;;8.28;92.53
75418;BME280;63997;52.112;5.420;2023-04-16T02:19:59;102341.81;;;8.28;92.29
75418;BME280;63997;52.112;5.420;2023-04-16T02:22:28;102343.41;;;8.29;92.39
75418;BME280;63997;52.112;5.420;2023-04-16T02:24:54;102337.84;;;8.31;92.40
75418;BME280;63997;52.112;5.420;2023-04-16T02:27:21;102339.44;;;8.32;92.41
75418;BME280;63997;52.112;5.420;2023-04-16T02:29:47;102342.59;;;8.34;92.43
75418;BME280;63997;52.112;5.420;2023-04-16T02:32:13;102339.94;;;8.34;92.38
75418;BME280;63997;52.112;5.420;2023-04-16T02:34:40;102341.53;;;8.35;92.37
75418;BME280;63997;52.112;5.420;2023-04-16T02:37:07;102344.19;;;8.35;92.46
75418;BME280;63997;52.112;5.420;2023-04-16T02:39:34;102345.81;;;8.36;92.31
75418;BME280;63997;52.112;5.420;2023-04-16T02:42:00;102346.34;;;8.38;92.39
75418;BME280;63997;52.112;5.420;2023-04-16T02:44:28;102349.78;;;8.38;92.42
75418;BME280;63997;52.112;5.420;2023-04-16T02:46:54;102346.06;;;8.39;92.28
75418;BME280;63997;52.112;5.420;2023-04-16T02:49:20;102349.78;;;8.38;91.92
75418;BME280;63997;52.112;5.420;2023-04-16T02:51:47;102349.00;;;8.38;91.82
75418;BME280;63997;52.112;5.420;2023-04-16T02:54:13;102350.59;;;8.39;91.99
75418;BME280;63997;52.112;5.420;2023-04-16T02:56:39;102347.94;;;8.39;92.00
75418;BME280;63997;52.112;5.420;2023-04-16T02:59:06;102353.75;;;8.41;92.13
75418;BME280;63997;52.112;5.420;2023-04-16T03:01:33;102359.84;;;8.41;92.17
75418;BME280;63997;52.112;5.420;2023-04-16T03:03:59;102355.63;;;8.40;92.05
75418;BME280;63997;52.112;5.420;2023-04-16T03:06:25;102353.75;;;8.41;92.05
75418;BME280;63997;52.112;5.420;2023-04-16T03:08:52;102346.88;;;8.40;91.97
75418;BME280;63997;52.112;5.420;2023-04-16T03:11:18;102348.72;;;8.39;92.11
75418;BME280;63997;52.112;5.420;2023-04-16T03:13:45;102352.16;;;8.40;91.99
75418;BME280;63997;52.112;5.420;2023-04-16T03:16:11;102359.06;;;8.41;92.17
75418;BME280;63997;52.112;5.420;2023-04-16T03:18:38;102357.47;;;8.40;92.08
75418;BME280;63997;52.112;5.420;2023-04-16T03:21:04;102364.34;;;8.41;92.14
75418;BME280;63997;52.112;5.420;2023-04-16T03:23:31;102362.78;;;8.40;92.37
75418;BME280;63997;52.112;5.420;2023-04-16T03:25:57;102363.56;;;8.40;92.32
75418;BME280;63997;52.112;5.420;2023-04-16T03:28:24;102364.63;;;8.39;92.01
75418;BME280;63997;52.112;5.420;2023-04-16T03:30:52;102369.16;;;8.39;92.15
75418;BME280;63997;52.112;5.420;2023-04-16T03:33:19;102375.22;;;8.39;92.01
75418;BME280;63997;52.112;5.420;2023-04-16T03:35:45;102371.78;;;8.39;92.15
75418;BME280;63997;52.112;5.420;2023-04-16T03:38:12;102368.06;;;8.40;92.20
75418;BME280;63997;52.112;5.420;2023-04-16T03:40:38;102368.06;;;8.40;92.17
75418;BME280;63997;52.112;5.420;2023-04-16T03:43:04;102374.97;;;8.41;92.14
75418;BME280;63997;52.112;5.420;2023-04-16T03:45:31;102372.06;;;8.42;92.29
75418;BME280;63997;52.112;5.420;2023-04-16T03:47:57;102371.78;;;8.44;92.39
75418;BME280;63997;52.112;5.420;2023-04-16T03:50:24;102376.03;;;8.45;92.51
75418;BME280;63997;52.112;5.420;2023-04-16T03:52:50;102376.31;;;8.43;92.15
75418;BME280;63997;52.112;5.420;2023-04-16T03:55:17;102381.88;;;8.42;92.05
75418;BME280;63997;52.112;5.420;2023-04-16T03:57:43;102378.16;;;8.43;91.99
75418;BME280;63997;52.112;5.420;2023-04-16T04:00:10;102373.66;;;8.43;92.04
75418;BME280;63997;52.112;5.420;2023-04-16T04:02:36;102375.22;;;8.44;92.25
75418;BME280;63997;52.112;5.420;2023-04-16T04:05:03;102380.53;;;8.44;92.31
75418;BME280;63997;52.112;5.420;2023-04-16T04:07:30;102377.38;;;8.42;92.01
75418;BME280;63997;52.112;5.420;2023-04-16T04:09:56;102378.69;;;8.40;91.97
75418;BME280;63997;52.112;5.420;2023-04-16T04:12:22;102378.69;;;8.40;91.96
75418;BME280;63997;52.112;5.420;2023-04-16T04:14:49;102374.97;;;8.41;92.33
75418;BME280;63997;52.112;5.420;2023-04-16T04:17:15;102376.81;;;8.40;92.31
75418;BME280;63997;52.112;5.420;2023-04-16T04:19:42;102373.38;;;8.40;92.32
75418;BME280;63997;52.112;5.420;2023-04-16T04:22:25;102369.66;;;8.41;92.19
75418;BME280;63997;52.112;5.420;2023-04-16T04:24:52;102381.88;;;8.42;92.27
75418;BME280;63997;52.112;5.420;2023-04-16T04:27:18;102384.53;;;8.42;92.27
75418;BME280;63997;52.112;5.420;2023-04-16T04:29:45;102383.97;;;8.40;92.29
75418;BME280;63997;52.112;5.420;2023-04-16T04:32:11;102387.69;;;8.39;92.17
75418;BME280;63997;52.112;5.420;2023-04-16T04:34:38;102388.50;;;8.39;92.35
75418;BME280;63997;52.112;5.420;2023-04-16T04:37:04;102393.78;;;8.39;92.66
75418;BME280;63997;52.112;5.420;2023-04-16T04:39:30;102389.81;;;8.37;92.36
75418;BME280;63997;52.112;5.420;2023-04-16T04:41:57;102397.78;;;8.37;92.41
75418;BME280;63997;52.112;5.420;2023-04-16T04:44:23;102397.78;;;8.37;92.61
75418;BME280;63997;52.112;5.420;2023-04-16T04:46:49;102405.16;;;8.35;92.63
75418;BME280;63997;52.112;5.420;2023-04-16T04:49:16;102408.06;;;8.33;92.46
75418;BME280;63997;52.112;5.420;2023-04-16T04:51:42;102402.78;;;8.33;92.64
75418;BME280;63997;52.112;5.420;2023-04-16T04:54:09;102407.56;;;8.31;92.51
75418;BME280;63997;52.112;5.420;2023-04-16T04:56:35;102411.53;;;8.29;92.26
75418;BME280;63997;52.112;5.420;2023-04-16T04:59:01;102408.88;;;8.29;92.49
75418;BME280;63997;52.112;5.420;2023-04-16T05:01:28;102410.44;;;8.30;92.66
75418;BME280;63997;52.112;5.420;2023-04-16T05:03:54;102407.00;;;8.29;92.64
75418;BME280;63997;52.112;5.420;2023-04-16T05:06:21;102408.88;;;8.29;92.47
75418;BME280;63997;52.112;5.420;2023-04-16T05:08:47;102411.00;;;8.32;92.61
75418;BME280;63997;52.112;5.420;2023-04-16T05:11:13;102403.84;;;8.32;92.73
75418;BME280;63997;52.112;5.420;2023-04-16T05:13:40;102412.06;;;8.31;92.66
75418;BME280;63997;52.112;5.420;2023-04-16T05:16:06;102408.34;;;8.32;92.75
75418;BME280;63997;52.112;5.420;2023-04-16T05:18:32;102418.16;;;8.31;92.67
75418;BME280;63997;52.112;5.420;2023-04-16T05:20:59;102406.75;;;8.31;92.47
75418;BME280;63997;52.112;5.420;2023-04-16T05:23:25;102416.53;;;8.30;92.62
75418;BME280;63997;52.112;5.420;2023-04-16T05:25:52;102413.91;;;8.30;92.55
75418;BME280;63997;52.112;5.420;2023-04-16T05:28:18;102408.34;;;8.32;92.69
75418;BME280;63997;52.112;5.420;2023-04-16T05:30:44;102409.94;;;8.33;92.74
75418;BME280;63997;52.112;5.420;2023-04-16T05:33:11;102415.25;;;8.33;92.66
75418;BME280;63997;52.112;5.420;2023-04-16T05:35:37;102414.19;;;8.34;92.71
75418;BME280;63997;52.112;5.420;2023-04-16T05:38:03;102413.09;;;8.35;92.62
75418;BME280;63997;52.112;5.420;2023-04-16T05:40:30;102425.09;;;8.37;92.87
75418;BME280;63997;52.112;5.420;2023-04-16T05:42:57;102422.16;;;8.39;92.74
75418;BME280;63997;52.112;5.420;2023-04-16T05:45:23;102423.22;;;8.38;92.75
75418;BME280;63997;52.112;5.420;2023-04-16T05:47:53;102421.63;;;8.37;92.74
75418;BME280;63997;52.112;5.420;2023-04-16T05:50:19;102428.53;;;8.38;92.70
75418;BME280;63997;52.112;5.420;2023-04-16T05:52:45;102425.88;;;8.38;92.37
75418;BME280;63997;52.112;5.420;2023-04-16T05:55:12;102436.72;;;8.41;92.68
75418;BME280;63997;52.112;5.420;2023-04-16T05:57:38;102434.91;;;8.42;92.47
75418;BME280;63997;52.112;5.420;2023-04-16T06:00:05;102438.59;;;8.41;92.70
75418;BME280;63997;52.112;5.420;2023-04-16T06:02:32;102441.00;;;8.42;92.62
75418;BME280;63997;52.112;5.420;2023-04-16T06:04:58;102433.56;;;8.44;92.66
75418;BME280;63997;52.112;5.420;2023-04-16T06:07:25;102438.88;;;8.44;92.57
75418;BME280;63997;52.112;5.420;2023-04-16T06:09:51;102433.84;;;8.48;92.78
75418;BME280;63997;52.112;5.420;2023-04-16T06:12:18;102441.53;;;8.50;92.70
75418;BME280;63997;52.112;5.420;2023-04-16T06:14:44;102442.84;;;8.52;92.75
75418;BME280;63997;52.112;5.420;2023-04-16T06:17:10;102448.13;;;8.52;92.73
75418;BME280;63997;52.112;5.420;2023-04-16T06:19:37;102443.09;;;8.51;92.71
75418;BME280;63997;52.112;5.420;2023-04-16T06:22:03;102448.41;;;8.51;92.48
75418;BME280;63997;52.112;5.420;2023-04-16T06:24:31;102449.19;;;8.51;92.46
75418;BME280;63997;52.112;5.420;2023-04-16T06:26:58;102456.63;;;8.54;92.59
75418;BME280;63997;52.112;5.420;2023-04-16T06:29:24;102452.91;;;8.55;92.79
75418;BME280;63997;52.112;5.420;2023-04-16T06:32:06;102463.53;;;8.55;92.63
75418;BME280;63997;52.112;5.420;2023-04-16T06:34:32;102455.56;;;8.55;92.50
75418;BME280;63997;52.112;5.420;2023-04-16T06:36:59;102460.09;;;8.60;92.79
75418;BME280;63997;52.112;5.420;2023-04-16T06:39:26;102466.19;;;8.60;92.66
75418;BME280;63997;52.112;5.420;2023-04-16T06:41:52;102466.72;;;8.62;92.62
75418;BME280;63997;52.112;5.420;2023-04-16T06:44:19;102464.59;;;8.64;92.52
75418;BME280;63997;52.112;5.420;2023-04-16T06:46:45;102466.19;;;8.65;92.71
75418;BME280;63997;52.112;5.420;2023-04-16T06:49:11;102466.97;;;8.66;92.61
75418;BME280;63997;52.112;5.420;2023-04-16T06:51:38;102468.56;;;8.67;92.38
75418;BME280;63997;52.112;5.420;2023-04-16T06:54:04;102474.66;;;8.67;92.28
75418;BME280;63997;52.112;5.420;2023-04-16T06:56:31;102465.91;;;8.72;92.42
75418;BME280;63997;52.112;5.420;2023-04-16T06:58:57;102478.09;;;8.73;92.30
75418;BME280;63997;52.112;5.420;2023-04-16T07:01:26;102470.44;;;8.77;92.36
75418;BME280;63997;52.112;5.420;2023-04-16T07:03:53;102478.91;;;8.73;92.04
75418;BME280;63997;52.112;5.420;2023-04-16T07:06:20;102492.72;;;8.76;92.13
75418;BME280;63997;52.112;5.420;2023-04-16T07:08:46;102483.69;;;8.77;92.07
75418;BME280;63997;52.112;5.420;2023-04-16T07:11:12;102487.66;;;8.74;91.78
75418;BME280;63997;52.112;5.420;2023-04-16T07:13:39;102495.38;;;8.76;91.87
75418;BME280;63997;52.112;5.420;2023-04-16T07:16:06;102490.06;;;8.76;91.82
75418;BME280;63997;52.112;5.420;2023-04-16T07:18:32;102492.16;;;8.79;92.11
75418;BME280;63997;52.112;5.420;2023-04-16T07:20:59;102495.34;;;8.81;92.10
75418;BME280;63997;52.112;5.420;2023-04-16T07:23:25;102495.34;;;8.81;91.79
75418;BME280;63997;52.112;5.420;2023-04-16T07:25:51;102500.41;;;8.82;92.01
75418;BME280;63997;52.112;5.420;2023-04-16T07:28:18;102498.53;;;8.83;91.84
75418;BME280;63997;52.112;5.420;2023-04-16T07:30:45;102501.47;;;8.81;91.82
75418;BME280;63997;52.112;5.420;2023-04-16T07:33:11;102507.00;;;8.80;91.90
75418;BME280;63997;52.112;5.420;2023-04-16T07:35:38;102513.41;;;8.84;91.78
75418;BME280;63997;52.112;5.420;2023-04-16T07:38:04;102504.38;;;8.85;91.95
75418;BME280;63997;52.112;5.420;2023-04-16T07:40:31;102505.94;;;8.86;91.94
75418;BME280;63997;52.112;5.420;2023-04-16T07:42:58;102521.09;;;8.90;91.85
75418;BME280;63997;52.112;5.420;2023-04-16T07:45:24;102518.16;;;8.92;91.80
75418;BME280;63997;52.112;5.420;2023-04-16T07:47:50;102517.34;;;8.91;91.77
75418;BME280;63997;52.112;5.420;2023-04-16T07:50:17;102522.16;;;8.94;91.63
75418;BME280;63997;52.112;5.420;2023-04-16T07:52:45;102519.78;;;8.93;91.47
75418;BME280;63997;52.112;5.420;2023-04-16T07:55:12;102528.75;;;8.92;91.58
75418;BME280;63997;52.112;5.420;2023-04-16T07:57:39;102522.94;;;8.95;91.44
75418;BME280;63997;52.112;5.420;2023-04-16T08:00:07;102532.75;;;8.94;91.45
75418;BME280;63997;52.112;5.420;2023-04-16T08:02:33;102531.19;;;8.98;91.50
75418;BME280;63997;52.112;5.420;2023-04-16T08:05:00;102533.00;;;9.03;91.27
75418;BME280;63997;52.112;5.420;2023-04-16T08:07:26;102533.56;;;9.05;91.35
75418;BME280;63997;52.112;5.420;2023-04-16T08:09:53;102537.00;;;9.11;91.32
75418;BME280;63997;52.112;5.420;2023-04-16T08:12:19;102545.22;;;9.14;91.16
75418;BME280;63997;52.112;5.420;2023-04-16T08:14:46;102540.44;;;9.16;90.90
75418;BME280;63997;52.112;5.420;2023-04-16T08:17:14;102547.84;;;9.19;90.86
75418;BME280;63997;52.112;5.420;2023-04-16T08:19:41;102544.69;;;9.22;90.91
75418;BME280;63997;52.112;5.420;2023-04-16T08:22:07;102554.75;;;9.25;90.56
75418;BME280;63997;52.112;5.420;2023-04-16T08:24:34;102550.78;;;9.28;90.32
75418;BME280;63997;52.112;5.420;2023-04-16T08:27:00;102558.75;;;9.28;90.04
75418;BME280;63997;52.112;5.420;2023-04-16T08:29:43;102563.00;;;9.29;90.12
75418;BME280;63997;52.112;5.420;2023-04-16T08:32:09;102563.50;;;9.31;90.00
75418;BME280;63997;52.112;5.420;2023-04-16T08:34:36;102563.50;;;9.31;89.96
75418;BME280;63997;52.112;5.420;2023-04-16T08:37:02;102557.69;;;9.34;89.86
75418;BME280;63997;52.112;5.420;2023-04-16T08:39:29;102558.75;;;9.38;89.83
75418;BME280;63997;52.112;5.420;2023-04-16T08:41:55;102560.31;;;9.39;89.35
75418;BME280;63997;52.112;5.420;2023-04-16T08:44:25;102562.47;;;9.37;89.39
75418;BME280;63997;52.112;5.420;2023-04-16T08:46:53;102567.50;;;9.44;89.21
75418;BME280;63997;52.112;5.420;2023-04-16T08:49:25;102569.34;;;9.48;89.43
75418;BME280;63997;52.112;5.420;2023-04-16T08:51:53;102572.53;;;9.50;89.32
75418;BME280;63997;52.112;5.420;2023-04-16T08:54:47;102566.66;;;9.53;88.96
75418;BME280;63997;52.112;5.420;2023-04-16T08:57:22;102565.06;;;9.58;88.93
75418;BME280;63997;52.112;5.420;2023-04-16T08:59:53;102575.94;;;9.66;89.21
75418;BME280;63997;52.112;5.420;2023-04-16T09:02:20;102575.38;;;9.69;88.60
75418;BME280;63997;52.112;5.420;2023-04-16T09:04:48;102571.44;;;9.67;88.31
75418;BME280;63997;52.112;5.420;2023-04-16T09:07:16;102568.19;;;9.75;88.79
75418;BME280;63997;52.112;5.420;2023-04-16T09:09:47;102579.09;;;9.84;88.67
75418;BME280;63997;52.112;5.420;2023-04-16T09:12:16;102565.78;;;9.89;88.56
75418;BME280;63997;52.112;5.420;2023-04-16T09:14:42;102572.13;;;9.93;88.32
75418;BME280;63997;52.112;5.420;2023-04-16T09:17:12;102584.09;;;9.95;87.59
75418;BME280;63997;52.112;5.420;2023-04-16T09:19:39;102591.00;;;9.96;87.52
75418;BME280;63997;52.112;5.420;2023-04-16T09:22:05;102579.31;;;9.92;87.25
75418;BME280;63997;52.112;5.420;2023-04-16T09:24:33;102582.22;;;10.01;87.51
75418;BME280;63997;52.112;5.420;2023-04-16T09:26:59;102589.63;;;10.04;87.10
75418;BME280;63997;52.112;5.420;2023-04-16T09:29:37;102582.22;;;10.01;87.10
75418;BME280;63997;52.112;5.420;2023-04-16T09:32:05;102587.53;;;10.01;86.93
75418;BME280;63997;52.112;5.420;2023-04-16T09:34:32;102588.59;;;10.05;86.97
75418;BME280;63997;52.112;5.420;2023-04-16T09:37:16;102597.06;;;10.07;86.69
75418;BME280;63997;52.112;5.420;2023-04-16T09:39:43;102591.22;;;10.10;86.76
75418;BME280;63997;52.112;5.420;2023-04-16T09:42:10;102604.75;;;10.08;86.55
75418;BME280;63997;52.112;5.420;2023-04-16T09:44:37;102609.84;;;10.10;86.36
75418;BME280;63997;52.112;5.420;2023-04-16T09:47:05;102606.59;;;10.13;86.49
75418;BME280;63997;52.112;5.420;2023-04-16T09:49:42;102613.00;;;10.12;86.42
75418;BME280;63997;52.112;5.420;2023-04-16T09:52:16;102613.53;;;10.09;86.63
75418;BME280;63997;52.112;5.420;2023-04-16T09:54:50;102620.97;;;10.12;86.70
75418;BME280;63997;52.112;5.420;2023-04-16T09:57:21;102613.50;;;10.14;86.69
75418;BME280;63997;52.112;5.420;2023-04-16T09:59:52;102620.41;;;10.15;86.65
75418;BME280;63997;52.112;5.420;2023-04-16T10:02:19;102614.56;;;10.18;86.47
75418;BME280;63997;52.112;5.420;2023-04-16T10:04:50;102613.78;;;10.18;86.21
75418;BME280;63997;52.112;5.420;2023-04-16T10:07:17;102615.38;;;10.19;86.39
75418;BME280;63997;52.112;5.420;2023-04-16T10:09:45;102617.75;;;10.15;86.31
75418;BME280;63997;52.112;5.420;2023-04-16T10:12:14;102616.16;;;10.14;86.13
75418;BME280;63997;52.112;5.420;2023-04-16T10:14:41;102623.13;;;10.10;86.07
75418;BME280;63997;52.112;5.420;2023-04-16T10:17:08;102623.66;;;10.02;86.30
75418;BME280;63997;52.112;5.420;2023-04-16T10:19:35;102622.56;;;10.08;86.59
75418;BME280;63997;52.112;5.420;2023-04-16T10:22:02;102616.72;;;10.11;86.41
75418;BME280;63997;52.112;5.420;2023-04-16T10:24:30;102617.50;;;10.17;85.77
75418;BME280;63997;52.112;5.420;2023-04-16T10:26:58;102624.13;;;10.19;86.18
75418;BME280;63997;52.112;5.420;2023-04-16T10:29:26;102631.03;;;10.25;86.15
75418;BME280;63997;52.112;5.420;2023-04-16T10:31:53;102625.47;;;10.22;85.77
75418;BME280;63997;52.112;5.420;2023-04-16T10:34:22;102623.06;;;10.20;85.66
75418;BME280;63997;52.112;5.420;2023-04-16T10:36:50;102622.25;;;10.20;85.59
75418;BME280;63997;52.112;5.420;2023-04-16T10:39:20;102629.72;;;10.18;85.81
75418;BME280;63997;52.112;5.420;2023-04-16T10:41:48;102624.69;;;10.21;85.54
75418;BME280;63997;52.112;5.420;2023-04-16T10:44:16;102621.47;;;10.29;86.08
75418;BME280;63997;52.112;5.420;2023-04-16T10:46:46;102627.31;;;10.26;85.80
75418;BME280;63997;52.112;5.420;2023-04-16T10:49:23;102632.38;;;10.23;85.70
75418;BME280;63997;52.112;5.420;2023-04-16T10:51:57;102631.56;;;10.22;85.95
75418;BME280;63997;52.112;5.420;2023-04-16T10:54:30;102622.00;;;10.26;85.62
75418;BME280;63997;52.112;5.420;2023-04-16T10:56:58;102634.47;;;10.31;85.82
75418;BME280;63997;52.112;5.420;2023-04-16T10:59:31;102631.28;;;10.34;85.62
75418;BME280;63997;52.112;5.420;2023-04-16T11:02:00;102628.88;;;10.38;85.88
75418;BME280;63997;52.112;5.420;2023-04-16T11:04:32;102628.31;;;10.46;85.42
75418;BME280;63997;52.112;5.420;2023-04-16T11:07:00;102629.88;;;10.52;85.13
75418;BME280;63997;52.112;5.420;2023-04-16T11:09:59;102628.34;;;10.41;84.69
75418;BME280;63997;52.112;5.420;2023-04-16T11:12:45;102632.34;;;10.38;85.30
75418;BME280;63997;52.112;5.420;2023-04-16T11:15:16;102632.34;;;10.38;84.91
75418;BME280;63997;52.112;5.420;2023-04-16T11:17:46;102622.75;;;10.37;84.55
75418;BME280;63997;52.112;5.420;2023-04-16T11:20:20;102625.66;;;10.41;84.77
75418;BME280;63997;52.112;5.420;2023-04-16T11:22:48;102630.69;;;10.47;85.19
75418;BME280;63997;52.112;5.420;2023-04-16T11:25:25;102633.28;;;10.57;85.43
75418;BME280;63997;52.112;5.420;2023-04-16T11:27:52;102632.19;;;10.64;84.47
75418;BME280;63997;52.112;5.420;2023-04-16T11:30:30;102638.06;;;10.60;84.57
75418;BME280;63997;52.112;5.420;2023-04-16T11:33:02;102633.28;;;10.57;83.97
75418;BME280;63997;52.112;5.420;2023-04-16T11:35:29;102633.34;;;10.47;83.93
75418;BME280;63997;52.112;5.420;2023-04-16T11:37:56;102629.13;;;10.41;84.30
75418;BME280;63997;52.112;5.420;2023-04-16T11:40:23;102644.03;;;10.32;84.18
75418;BME280;63997;52.112;5.420;2023-04-16T11:42:50;102645.13;;;10.31;84.86
75418;BME280;63997;52.112;5.420;2023-04-16T11:45:16;102637.69;;;10.33;84.88
75418;BME280;63997;52.112;5.420;2023-04-16T11:47:47;102639.28;;;10.34;84.82
75418;BME280;63997;52.112;5.420;2023-04-16T11:52:43;102645.34;;;10.40;84.74
75418;BME280;63997;52.112;5.420;2023-04-16T11:55:10;102635.53;;;10.35;84.68
75418;BME280;63997;52.112;5.420;2023-04-16T11:57:37;102637.91;;;10.42;84.85
75418;BME280;63997;52.112;5.420;2023-04-16T12:00:03;102642.41;;;10.41;84.71
75418;BME280;63997;52.112;5.420;2023-04-16T12:02:44;102642.13;;;10.43;85.13
75418;BME280;63997;52.112;5.420;2023-04-16T12:07:58;102645.84;;;10.52;84.58
75418;BME280;63997;52.112;5.420;2023-04-16T12:10:25;102640.22;;;10.53;84.31
75418;BME280;63997;52.112;5.420;2023-04-16T12:12:52;102647.94;;;10.55;84.14
75418;BME280;63997;52.112;5.420;2023-04-16T12:15:18;102645.00;;;10.62;84.68
75418;BME280;63997;52.112;5.420;2023-04-16T12:17:44;102648.97;;;10.64;84.26
75418;BME280;63997;52.112;5.420;2023-04-16T12:20:13;102653.72;;;10.72;84.53
75418;BME280;63997;52.112;5.420;2023-04-16T12:22:45;102659.25;;;10.81;84.23
75418;BME280;63997;52.112;5.420;2023-04-16T12:25:14;102656.84;;;10.84;83.88
75418;BME280;63997;52.112;5.420;2023-04-16T12:27:51;102655.03;;;10.75;83.64
75418;BME280;63997;52.112;5.420;2023-04-16T12:30:21;102656.91;;;10.69;83.93
75418;BME280;63997;52.112;5.420;2023-04-16T12:32:50;102654.28;;;10.64;83.77
75418;BME280;63997;52.112;5.420;2023-04-16T12:35:30;102660.94;;;10.67;84.26
75418;BME280;63997;52.112;5.420;2023-04-16T12:37:57;102654.25;;;10.69;83.55
75418;BME280;63997;52.112;5.420;2023-04-16T12:40:23;102663.31;;;10.68;83.62
75418;BME280;63997;52.112;5.420;2023-04-16T12:42:49;102660.09;;;10.66;83.99
75418;BME280;63997;52.112;5.420;2023-04-16T12:45:16;102655.84;;;10.70;83.92
75418;BME280;63997;52.112;5.420;2023-04-16T12:47:42;102664.34;;;10.72;84.12
75418;BME280;63997;52.112;5.420;2023-04-16T12:50:09;102665.94;;;10.73;83.60
75418;BME280;63997;52.112;5.420;2023-04-16T12:52:36;102658.50;;;10.70;83.59
75418;BME280;63997;52.112;5.420;2023-04-16T12:55:02;102661.13;;;10.75;83.72
75418;BME280;63997;52.112;5.420;2023-04-16T12:57:29;102669.69;;;10.72;83.72
75418;BME280;63997;52.112;5.420;2023-04-16T12:59:56;102661.13;;;10.75;83.84
75418;BME280;63997;52.112;5.420;2023-04-16T13:02:23;102661.69;;;10.72;83.46
75418;BME280;63997;52.112;5.420;2023-04-16T13:04:51;102666.44;;;10.80;83.48